Time;durP1;ratioP1;P1;durP2;ratioP2;P2;SDS_P1;SDS_P2;PMS_P1;PMS_P2;Temp;Humidity;BMP_temperature;BMP_pressure;BME280_temperature;BME280_humidity;BME280_pressure;Samples;Min_cycle;Max_cycle;Signal;HPM_P1;HPM_P2
2023/03/24 00:00:04;;;;;;;0.50;0.50;;;;;;;12.23;67.75;96024.53;29395;225;63009;-58
2023/03/24 00:00:36;;;;;;;0.50;0.50;;;;;;;12.25;67.67;96032.38;29394;205;64009;-59
2023/03/24 00:01:07;;;;;;;0.50;0.50;;;;;;;12.24;67.98;96036.22;29395;325;63009;-58
2023/03/24 00:01:38;;;;;;;0.40;0.40;;;;;;;12.21;67.99;96025.97;29394;222;64009;-58
2023/03/24 00:02:09;;;;;;;0.45;0.45;;;;;;;12.20;68.27;96029.81;29395;238;63009;-59
2023/03/24 00:02:42;;;;;;;0.50;0.50;;;;;;;12.20;67.94;96024.38;29395;260;63004;-59
2023/03/24 00:03:15;;;;;;;0.40;0.40;;;;;;;12.22;67.63;96022.94;29395;196;63009;-59
2023/03/24 00:03:47;;;;;;;0.50;0.50;;;;;;;12.27;67.24;96024.69;29395;222;63004;-58
2023/03/24 00:04:20;;;;;;;0.50;0.50;;;;;;;12.29;67.59;96030.59;29395;233;63009;-59
2023/03/24 00:04:52;;;;;;;0.40;0.40;;;;;;;12.27;67.54;96030.13;29395;221;63004;-58
2023/03/24 00:05:23;;;;;;;0.50;0.50;;;;;;;12.26;67.44;96028.53;29395;251;63008;-59
2023/03/24 00:06:02;;;;;;;0.50;0.50;;;;;;;12.30;67.73;96015.88;29395;234;63005;-59
2023/03/24 00:06:35;;;;;;;0.50;0.50;;;;;;;12.31;67.48;96014.75;29394;214;64014;-58
2023/03/24 00:07:13;;;;;;;0.40;0.40;;;;;;;12.31;67.14;96020.22;29395;218;63005;-59
2023/03/24 00:07:46;;;;;;;0.50;0.50;;;;;;;12.29;67.15;96022.44;29395;229;63023;-58
2023/03/24 00:08:18;;;;;;;0.50;0.50;;;;;;;12.27;67.40;96020.06;29395;253;63005;-58
2023/03/24 00:08:50;;;;;;;0.50;0.50;;;;;;;12.32;66.74;96017.16;29395;240;63009;-60
2023/03/24 00:09:23;;;;;;;0.40;0.40;;;;;;;12.31;66.67;96014.75;29395;207;63004;-58
2023/03/24 00:09:55;;;;;;;0.40;0.40;;;;;;;12.29;67.83;96022.44;29395;243;63009;-58
2023/03/24 00:10:29;;;;;;;0.40;0.40;;;;;;;12.25;67.71;96016.84;29395;208;63004;-58
2023/03/24 00:11:03;;;;;;;0.40;0.40;;;;;;;12.22;67.63;96022.94;29394;248;64013;-58
2023/03/24 00:11:35;;;;;;;0.50;0.50;;;;;;;12.21;67.56;96020.53;29394;220;64008;-58
2023/03/24 00:12:08;;;;;;;0.50;0.50;;;;;;;12.20;67.32;96021.66;29395;249;63008;-57
2023/03/24 00:12:41;;;;;;;0.40;0.40;;;;;;;12.20;67.68;96018.94;29395;198;63004;-60
2023/03/24 00:13:13;;;;;;;0.50;0.50;;;;;;;12.19;68.14;96025.50;29395;381;63009;-58
2023/03/24 00:13:48;;;;;;;0.43;0.43;;;;;;;12.19;67.89;96025.50;29395;232;63005;-58
2023/03/24 00:14:20;;;;;;;3.17;0.68;;;;;;;12.21;67.73;96020.53;29395;260;63009;-58
2023/03/24 00:14:54;;;;;;;0.40;0.40;;;;;;;12.21;67.58;96015.09;29395;225;63005;-58
2023/03/24 00:15:26;;;;;;;0.40;0.40;;;;;;;12.22;67.34;96011.25;29395;263;63009;-57
2023/03/24 00:15:58;;;;;;;0.40;0.40;;;;;;;12.21;67.35;96015.09;29395;483;63005;-60
2023/03/24 00:16:33;;;;;;;0.40;0.40;;;;;;;12.22;67.59;96011.25;29395;202;63009;-59
2023/03/24 00:17:08;;;;;;;0.50;0.50;;;;;;;12.22;67.29;96009.34;29394;218;64009;-58
2023/03/24 00:17:40;;;;;;;0.40;0.40;;;;;;;12.22;67.39;96013.97;29395;270;63009;-58
2023/03/24 00:18:11;;;;;;;0.43;0.43;;;;;;;12.20;67.56;96018.94;29395;199;63004;-58
2023/03/24 00:18:42;;;;;;;0.50;0.50;;;;;;;12.19;67.36;96011.91;29395;323;63009;-58
2023/03/24 00:19:18;;;;;;;0.47;0.47;;;;;;;12.17;67.28;96014.16;29395;348;63004;-58
2023/03/24 00:19:55;;;;;;;0.50;0.50;;;;;;;12.15;68.04;96011.75;29395;217;63008;-58
2023/03/24 00:20:28;;;;;;;0.40;0.40;;;;;;;12.14;68.51;96015.59;29395;226;63005;-57
2023/03/24 00:20:59;;;;;;;0.40;0.40;;;;;;;12.15;68.30;96016.41;29395;231;63009;-58
2023/03/24 00:21:32;;;;;;;0.50;0.50;;;;;;;12.17;67.46;96014.16;29395;359;63005;-58
2023/03/24 00:22:05;;;;;;;0.50;0.50;;;;;;;12.17;67.43;96006.00;29395;219;63009;-58
2023/03/24 00:22:41;;;;;;;0.50;0.50;;;;;;;12.23;66.94;96008.22;29394;236;64009;-57
2023/03/24 00:23:12;;;;;;;0.45;0.45;;;;;;;12.32;66.34;96013.63;29395;227;63009;-58
2023/03/24 00:23:46;;;;;;;0.50;0.50;;;;;;;12.34;66.18;96011.41;29395;370;63005;-59
2023/03/24 00:24:19;;;;;;;0.50;0.50;;;;;;;12.33;66.59;96007.87;29395;354;63009;-59
2023/03/24 00:24:50;;;;;;;0.43;0.43;;;;;;;12.36;66.41;96006.44;29395;258;63004;-58
2023/03/24 00:25:26;;;;;;;0.50;0.50;;;;;;;12.35;66.23;96008.34;29395;204;63009;-58
2023/03/24 00:26:07;;;;;;;0.40;0.40;;;;;;;12.32;66.84;96008.19;29395;249;63004;-57
2023/03/24 00:26:40;;;;;;;0.50;0.50;;;;;;;12.28;66.97;96004.53;29417;219;63008;-58
2023/03/24 00:27:14;;;;;;;0.45;0.45;;;;;;;12.31;66.56;96004.69;29395;406;63004;-59
2023/03/24 00:27:50;;;;;;;0.70;0.70;;;;;;;12.34;66.42;95998.59;29394;342;64014;-58
2023/03/24 00:28:21;;;;;;;0.40;0.40;;;;;;;12.36;66.25;96001.78;29395;228;63005;-59
2023/03/24 00:28:54;;;;;;;0.98;0.98;;;;;;;12.37;65.82;95997.94;29395;258;63009;-58
2023/03/24 00:29:26;;;;;;;0.43;0.43;;;;;;;12.46;65.75;95995.19;29394;208;64009;-57
2023/03/24 00:30:03;;;;;;;0.40;0.40;;;;;;;12.46;65.86;95992.47;29395;249;63009;-60
2023/03/24 00:30:34;;;;;;;0.50;0.50;;;;;;;12.44;65.78;95991.22;29394;298;64009;-59
2023/03/24 00:31:07;;;;;;;0.50;0.50;;;;;;;12.42;66.19;95991.53;29394;198;64002;-58
2023/03/24 00:31:39;;;;;;;0.45;0.45;;;;;;;12.47;64.93;95994.06;29394;233;64009;-58
2023/03/24 00:32:10;;;;;;;0.50;0.50;;;;;;;12.44;65.40;95994.72;29395;227;63009;-58
2023/03/24 00:32:42;;;;;;;0.50;0.50;;;;;;;12.41;65.43;95988.00;29395;215;63004;-59
2023/03/24 00:33:13;;;;;;;0.50;0.50;;;;;;;12.41;65.25;95993.47;29395;321;63009;-59
2023/03/24 00:33:49;;;;;;;0.50;0.50;;;;;;;12.42;65.26;95986.09;29395;220;63004;-58
2023/03/24 00:34:21;;;;;;;0.50;0.50;;;;;;;12.43;65.02;95995.06;29395;246;63025;-60
2023/03/24 00:34:53;;;;;;;0.70;0.70;;;;;;;12.42;64.87;95994.25;29394;413;64008;-58
2023/03/24 00:35:24;;;;;;;0.50;0.50;;;;;;;12.40;65.43;95988.34;29395;327;63009;-59
2023/03/24 00:35:56;;;;;;;0.40;0.40;;;;;;;12.39;65.22;95992.19;29395;200;63005;-58
2023/03/24 00:36:28;;;;;;;0.50;0.50;;;;;;;12.37;65.38;95986.25;29395;234;63009;-57
2023/03/24 00:36:59;;;;;;;0.50;0.50;;;;;;;12.37;65.66;95986.25;29394;285;64009;-57
2023/03/24 00:37:31;;;;;;;0.40;0.40;;;;;;;12.32;65.98;95989.16;29395;287;63009;-58
2023/03/24 00:38:02;;;;;;;0.40;0.40;;;;;;;12.29;66.12;95985.16;29395;198;63005;-58
2023/03/24 00:38:35;;;;;;;0.47;0.47;;;;;;;12.29;65.81;95990.59;29395;407;63009;-66
2023/03/24 00:39:06;;;;;;;0.50;0.50;;;;;;;12.29;66.03;95981.66;29395;260;63005;-58
2023/03/24 00:39:40;;;;;;;0.43;0.43;;;;;;;12.29;65.60;95978.94;29395;245;63009;-59
2023/03/24 00:40:17;;;;;;;0.50;0.50;;;;;;;12.31;65.98;95984.84;29395;196;63004;-57
2023/03/24 00:40:49;;;;;;;0.50;0.50;;;;;;;12.32;65.47;95984.53;29395;233;63009;-59
2023/03/24 00:41:23;;;;;;;0.50;0.50;;;;;;;12.34;65.59;95979.56;29395;264;63004;-59
2023/03/24 00:41:57;;;;;;;0.50;0.50;;;;;;;12.37;65.50;95969.94;29394;242;64013;-68
2023/03/24 00:42:32;;;;;;;0.47;0.47;;;;;;;12.41;65.19;95966.25;29395;204;63004;-58
2023/03/24 00:43:04;;;;;;;0.50;0.50;;;;;;;12.40;65.10;95966.56;29395;435;63009;-58
2023/03/24 00:43:36;;;;;;;0.50;0.50;;;;;;;12.39;64.93;95964.97;29395;233;63005;-58
2023/03/24 00:44:16;;;;;;;0.40;0.40;;;;;;;12.36;64.69;95962.91;29395;245;63009;-58
2023/03/24 00:44:48;;;;;;;0.43;0.43;;;;;;;12.35;65.05;95977.63;29417;215;63005;-58
2023/03/24 00:45:24;;;;;;;0.40;0.40;;;;;;;12.36;65.07;95969.16;29395;257;63009;-58
2023/03/24 00:46:05;;;;;;;0.40;0.40;;;;;;;12.39;64.98;95970.41;29395;210;63012;-58
2023/03/24 00:46:37;;;;;;;0.50;0.50;;;;;;;12.36;64.94;95965.62;29416;263;64013;-59
2023/03/24 00:47:09;;;;;;;0.40;0.40;;;;;;;12.39;64.89;95957.62;29395;259;63004;-58
2023/03/24 00:47:43;;;;;;;0.40;0.40;;;;;;;12.46;64.68;95962.56;29394;247;64013;-58
2023/03/24 00:48:17;;;;;;;0.50;0.50;;;;;;;12.45;64.56;95958.22;29395;374;63004;-58
2023/03/24 00:48:50;;;;;;;0.43;0.43;;;;;;;12.43;64.52;95963.19;29395;199;63009;-59
2023/03/24 00:49:40;;;;;;;0.43;0.43;;;;;;;12.41;64.60;95965.44;29394;210;64008;-58
2023/03/24 00:50:15;;;;;;;2.90;1.58;;;;;;;12.43;64.55;95963.19;29376;354;126014;-58
2023/03/24 00:50:49;;;;;;;0.40;0.40;;;;;;;12.47;64.64;95953.25;29395;234;63005;-57
2023/03/24 00:51:20;;;;;;;0.40;0.40;;;;;;;12.48;64.23;95956.75;29395;202;63009;-58
2023/03/24 00:51:51;;;;;;;0.40;0.40;;;;;;;12.46;64.49;95962.56;29395;384;63005;-57
2023/03/24 00:52:24;;;;;;;0.50;0.50;;;;;;;12.43;64.24;95957.75;29395;217;63009;-58
2023/03/24 00:52:56;;;;;;;0.50;0.50;;;;;;;12.43;64.28;95963.19;29395;220;63007;-58
2023/03/24 00:53:28;;;;;;;0.45;0.45;;;;;;;12.47;64.27;95956.00;29395;306;63009;-58
2023/03/24 00:54:00;;;;;;;0.50;0.50;;;;;;;12.46;64.21;95957.09;29395;202;63005;-58
2023/03/24 00:54:33;;;;;;;0.40;0.40;;;;;;;12.44;64.19;95955.84;29395;229;63009;-58
2023/03/24 00:55:05;;;;;;;0.50;0.50;;;;;;;12.41;64.33;95949.13;29395;225;63004;-57
2023/03/24 00:55:37;;;;;;;0.40;0.40;;;;;;;12.43;64.50;95952.31;29394;316;64013;-58
2023/03/24 00:56:10;;;;;;;0.40;0.40;;;;;;;12.40;64.01;95953.78;29394;273;64009;-57
2023/03/24 00:56:42;;;;;;;0.50;0.50;;;;;;;12.42;63.78;95950.72;29395;254;63009;-57
2023/03/24 00:57:21;;;;;;;0.40;0.40;;;;;;;12.41;64.57;95954.56;29395;279;63004;-59
2023/03/24 00:57:53;;;;;;;0.40;0.40;;;;;;;12.45;64.21;95944.63;29395;217;63009;-59
2023/03/24 00:58:25;;;;;;;0.40;0.40;;;;;;;12.44;64.00;95943.03;29395;249;63005;-59
2023/03/24 00:58:57;;;;;;;0.50;0.50;;;;;;;12.44;64.41;95943.03;29395;231;63018;-58
2023/03/24 00:59:28;;;;;;;0.43;0.43;;;;;;;12.41;64.45;95938.25;29395;227;63005;-57
2023/03/24 01:00:18;;;;;;;0.40;0.40;;;;;;;12.39;64.42;95943.22;29395;381;63009;-58
2023/03/24 01:00:54;;;;;;;0.43;0.43;;;;;;;12.40;64.34;95936.66;29395;250;63005;-58
2023/03/24 01:01:28;;;;;;;0.40;0.40;;;;;;;12.43;63.79;95935.19;29394;236;64013;-58
2023/03/24 01:02:02;;;;;;;0.40;0.40;;;;;;;12.42;63.91;95939.84;29394;244;64009;-58
2023/03/24 01:02:34;;;;;;;0.50;0.50;;;;;;;12.43;64.27;95936.00;29395;245;63009;-60
2023/03/24 01:03:06;;;;;;;0.50;0.50;;;;;;;12.47;64.18;95942.38;29395;218;63000;-58
2023/03/24 01:03:46;;;;;;;0.50;0.50;;;;;;;12.53;63.81;95930.16;29395;222;63009;-58
2023/03/24 01:04:19;;;;;;;0.50;0.50;;;;;;;12.49;63.88;95934.66;29417;197;63003;-59
2023/03/24 01:04:56;;;;;;;0.40;0.40;;;;;;;12.51;63.56;95928.88;29395;364;63008;-59
2023/03/24 01:05:30;;;;;;;0.50;0.50;;;;;;;12.47;63.54;95938.87;29395;217;63005;-58
2023/03/24 01:06:06;;;;;;;0.45;0.45;;;;;;;12.45;63.70;95939.19;29394;230;64014;-58
2023/03/24 01:06:39;;;;;;;0.50;0.50;;;;;;;12.41;64.36;95938.25;29395;246;63005;-58
2023/03/24 01:07:11;;;;;;;0.50;0.50;;;;;;;12.38;63.96;95928.81;29395;236;63009;-58
2023/03/24 01:07:42;;;;;;;0.50;0.50;;;;;;;12.38;64.21;95928.00;29395;305;63005;-58
2023/03/24 01:08:19;;;;;;;0.40;0.40;;;;;;;12.37;64.12;95926.41;29395;202;63009;-59
2023/03/24 01:08:52;;;;;;;0.50;0.50;;;;;;;12.36;64.41;95924.81;29395;304;63004;-59
2023/03/24 01:09:24;;;;;;;0.52;0.52;;;;;;;12.36;64.23;95932.97;29395;266;63009;-58
2023/03/24 01:09:57;;;;;;;0.50;0.50;;;;;;;12.38;64.20;95928.00;29395;221;63004;-57
2023/03/24 01:10:31;;;;;;;0.50;0.50;;;;;;;12.44;64.07;95924.00;29395;355;63009;-59
2023/03/24 01:11:05;;;;;;;0.40;0.40;;;;;;;12.45;63.73;95928.31;29394;225;64017;-58
2023/03/24 01:11:40;;;;;;;0.40;0.40;;;;;;;12.45;63.79;95920.16;29395;301;63008;-59
2023/03/24 01:12:11;;;;;;;0.50;0.50;;;;;;;12.46;63.92;95918.22;29395;252;63004;-68
2023/03/24 01:12:43;;;;;;;0.50;0.50;;;;;;;12.44;64.24;95915.81;29395;197;63009;-57
2023/03/24 01:13:15;;;;;;;0.50;0.50;;;;;;;12.39;63.96;95919.53;29395;202;63005;-58
2023/03/24 01:13:48;;;;;;;0.50;0.50;;;;;;;12.36;63.97;95924.81;29395;233;63009;-58
2023/03/24 01:14:19;;;;;;;0.50;0.50;;;;;;;12.34;64.09;95927.06;29395;259;63005;-58
2023/03/24 01:14:51;;;;;;;0.50;0.50;;;;;;;12.33;64.29;95922.75;29394;246;64013;-59
2023/03/24 01:15:29;;;;;;;0.50;0.50;;;;;;;12.37;63.85;95926.41;29395;207;63005;-59
2023/03/24 01:16:02;;;;;;;0.50;0.50;;;;;;;12.37;64.07;95920.97;29395;206;63009;-58
2023/03/24 01:16:34;;;;;;;0.50;0.50;;;;;;;12.37;63.90;95926.41;29395;198;63011;-58
2023/03/24 01:17:06;;;;;;;0.45;0.45;;;;;;;12.35;64.14;95920.50;29395;200;63009;-58
2023/03/24 01:17:38;;;;;;;0.50;0.50;;;;;;;12.34;64.25;95929.78;29395;252;63004;-59
2023/03/24 01:18:11;;;;;;;0.50;0.50;;;;;;;12.33;64.18;95920.03;29395;244;63009;-71
2023/03/24 01:18:43;;;;;;;0.50;0.50;;;;;;;12.32;64.45;95921.16;29395;217;63004;-58
2023/03/24 01:19:15;;;;;;;0.50;0.50;;;;;;;12.31;64.14;95916.84;29395;360;63008;-58
2023/03/24 01:19:46;;;;;;;0.50;0.50;;;;;;;12.32;64.28;95915.72;29395;261;63005;-59
2023/03/24 01:20:18;;;;;;;0.50;0.50;;;;;;;12.31;64.43;95922.28;29394;274;64014;-58
2023/03/24 01:20:50;;;;;;;0.50;0.50;;;;;;;12.32;64.39;95918.44;29395;268;63005;-58
2023/03/24 01:21:24;;;;;;;0.50;0.50;;;;;;;12.33;64.18;95920.03;29396;250;63009;-58
2023/03/24 01:21:55;;;;;;;0.50;0.50;;;;;;;12.32;64.11;95916.53;29394;202;64009;-58
2023/03/24 01:22:29;;;;;;;0.50;0.50;;;;;;;12.35;64.08;95912.34;29395;198;63005;-58
2023/03/24 01:23:03;;;;;;;0.50;0.50;;;;;;;12.39;63.68;95902.41;29395;267;63005;-58
2023/03/24 01:23:35;;;;;;;0.45;0.45;;;;;;;12.38;63.60;95901.59;29395;225;63024;-59
2023/03/24 01:24:08;;;;;;;0.50;0.50;;;;;;;12.37;63.87;95910.09;29395;244;63004;-59
2023/03/24 01:24:39;;;;;;;0.40;0.40;;;;;;;12.35;63.92;95906.91;29395;206;63009;-58
2023/03/24 01:25:17;;;;;;;0.43;0.43;;;;;;;12.37;63.61;95905.47;29395;262;63004;-58
2023/03/24 01:25:50;;;;;;;0.50;0.50;;;;;;;12.38;63.47;95908.97;29395;220;63009;-59
2023/03/24 01:26:21;;;;;;;0.62;0.62;;;;;;;12.46;63.26;95907.34;29394;202;64008;-58
2023/03/24 01:26:52;;;;;;;0.40;0.40;;;;;;;12.46;63.64;95901.91;29395;215;63020;-58
2023/03/24 01:27:24;;;;;;;0.40;0.40;;;;;;;12.45;63.30;95895.66;29394;252;64009;-58
2023/03/24 01:27:56;;;;;;;0.40;0.40;;;;;;;12.42;63.36;95890.88;29395;203;63025;-65
2023/03/24 01:29:36;;;;;;;0.50;0.50;;;;;;;12.46;63.31;95893.75;88174;216;64005;-68
2023/03/24 01:30:16;;;;;;;0.50;0.50;;;;;;;12.42;63.19;95896.31;29394;222;64009;-59
2023/03/24 01:30:47;;;;;;;0.50;0.50;;;;;;;12.43;63.24;95895.19;29395;199;63004;-58
2023/03/24 01:31:19;;;;;;;0.50;0.50;;;;;;;12.46;63.49;95894.53;29394;239;64013;-58
2023/03/24 01:31:50;;;;;;;0.50;0.50;;;;;;;12.45;63.31;95901.09;29395;257;63015;-61
2023/03/24 01:32:21;;;;;;;0.40;0.40;;;;;;;12.47;63.13;95900.78;29394;252;64013;-67
2023/03/24 01:32:52;;;;;;;0.40;0.40;;;;;;;12.45;63.07;95900.31;29395;256;63008;-58
2023/03/24 01:33:24;;;;;;;0.40;0.40;;;;;;;12.42;63.42;95901.75;29395;253;63009;-58
2023/03/24 01:33:55;;;;;;;0.40;0.40;;;;;;;12.39;63.33;95903.22;29395;231;63005;-60
2023/03/24 01:34:30;;;;;;;0.40;0.40;;;;;;;12.38;63.56;95900.81;29395;243;63009;-59
2023/03/24 01:35:02;;;;;;;0.43;0.43;;;;;;;12.37;63.65;95904.66;29395;204;63005;-58
2023/03/24 01:35:34;;;;;;;0.40;0.40;;;;;;;12.38;63.62;95900.81;29395;312;63009;-58
2023/03/24 01:36:07;;;;;;;0.50;0.50;;;;;;;12.38;63.61;95895.38;29395;233;63005;-58
2023/03/24 01:36:38;;;;;;;0.40;0.40;;;;;;;12.36;63.57;95897.62;29394;260;64013;-61
2023/03/24 01:37:10;;;;;;;0.40;0.40;;;;;;;12.34;63.88;95899.87;29395;225;63004;-58
2023/03/24 01:37:41;;;;;;;0.45;0.45;;;;;;;12.33;63.72;95892.84;29394;222;64013;-58
2023/03/24 01:38:14;;;;;;;0.50;0.50;;;;;;;12.33;63.69;95888.19;29395;246;63004;-60
2023/03/24 01:38:45;;;;;;;0.50;0.50;;;;;;;12.38;63.44;95882.56;29394;245;64013;-58
2023/03/24 01:39:16;;;;;;;0.43;0.43;;;;;;;12.43;63.40;95881.59;29395;199;63004;-58
2023/03/24 01:39:49;;;;;;;0.50;0.50;;;;;;;12.39;63.64;95886.88;29395;230;63008;-58
2023/03/24 01:40:31;;;;;;;0.50;0.50;;;;;;;12.38;63.69;95887.22;29395;235;63005;-58
2023/03/24 01:41:04;;;;;;;0.75;0.75;;;;;;;12.37;63.54;95885.63;29395;217;63009;-58
2023/03/24 01:41:38;;;;;;;0.47;0.47;;;;;;;12.34;63.58;95887.06;29395;216;63005;-58
2023/03/24 01:42:21;;;;;;;0.50;0.50;;;;;;;12.36;63.57;95882.09;29395;257;63014;-59
2023/03/24 01:42:53;;;;;;;0.40;0.40;;;;;;;12.37;63.80;95880.97;29395;213;63005;-58
2023/03/24 01:43:29;;;;;;;0.50;0.50;;;;;;;12.42;63.34;95880.00;29395;252;63009;-58
2023/03/24 01:44:21;;;;;;;0.50;0.50;;;;;;;12.42;63.58;95880.00;29394;229;64009;-58
2023/03/24 01:45:21;;;;;;;0.50;0.50;;;;;;;12.41;63.36;95875.69;29417;197;63009;-60
2023/03/24 01:46:17;;;;;;;0.50;0.50;;;;;;;12.37;63.65;95882.91;29395;226;63004;-58
2023/03/24 01:46:49;;;;;;;0.40;0.40;;;;;;;12.34;63.71;95878.91;29395;280;63008;-59
2023/03/24 01:47:20;;;;;;;0.50;0.50;;;;;;;12.33;63.75;95881.94;29395;202;63004;-58
2023/03/24 01:47:51;;;;;;;0.40;0.40;;;;;;;12.29;63.82;95881.81;29394;206;64014;-58
2023/03/24 01:48:43;;;;;;;0.45;0.45;;;;;;;12.28;63.57;95880.22;29395;203;63005;-58
2023/03/24 01:49:15;;;;;;;0.50;0.50;;;;;;;12.25;64.05;95877.34;29416;233;64013;-59
2023/03/24 01:49:53;;;;;;;0.50;0.50;;;;;;;12.22;63.92;95880.72;29395;250;63005;-59
2023/03/24 01:50:25;;;;;;;0.50;0.50;;;;;;;12.21;64.06;95888.09;29395;470;63009;-59
2023/03/24 01:51:28;;;;;;;0.50;0.50;;;;;;;12.21;64.00;95884.56;29395;218;63005;-58
2023/03/24 01:52:03;;;;;;;0.50;0.50;;;;;;;12.20;64.05;95878.31;29394;356;64013;-59
2023/03/24 01:52:35;;;;;;;0.50;0.50;;;;;;;12.22;64.16;95878.00;29395;198;63004;-58
2023/03/24 01:53:08;;;;;;;0.50;0.50;;;;;;;12.23;64.17;95885.03;29395;233;63009;-60
2023/03/24 01:53:46;;;;;;;0.50;0.50;;;;;;;12.21;64.26;95887.28;29395;388;63009;-59
2023/03/24 01:54:22;;;;;;;0.50;0.50;;;;;;;12.25;64.25;95882.78;29395;259;63022;-59
2023/03/24 01:55:17;;;;;;;0.40;0.40;;;;;;;12.23;64.15;95877.69;29394;361;64008;-60
2023/03/24 01:55:49;;;;;;;0.50;0.50;;;;;;;12.19;64.08;95882.16;29395;261;63009;-58
2023/03/24 01:56:22;;;;;;;0.45;0.45;;;;;;;12.17;64.28;95889.06;29395;226;63005;-60
2023/03/24 01:57:07;;;;;;;0.40;0.40;;;;;;;12.18;64.03;95879.78;29395;196;63009;-58
2023/03/24 01:57:43;;;;;;;0.50;0.50;;;;;;;12.20;63.85;95872.09;29394;200;64009;-59
2023/03/24 01:58:16;;;;;;;0.50;0.50;;;;;;;12.20;63.91;95886.50;29395;233;63009;-58
2023/03/24 01:58:54;;;;;;;0.40;0.40;;;;;;;12.20;63.69;95882.97;29395;224;63005;-58
2023/03/24 01:59:29;;;;;;;0.50;0.50;;;;;;;12.19;64.02;95892.25;29395;246;63009;-58
2023/03/24 02:00:10;;;;;;;0.45;0.45;;;;;;;12.16;64.24;95887.47;29395;246;63004;-58
2023/03/24 02:00:41;;;;;;;0.50;0.50;;;;;;;12.14;64.16;95889.72;29417;210;63009;-58
2023/03/24 02:01:14;;;;;;;0.50;0.50;;;;;;;12.11;64.78;95891.19;29395;227;63004;-60
2023/03/24 02:01:46;;;;;;;0.50;0.50;;;;;;;12.12;64.27;95881.91;29395;214;63008;-58
2023/03/24 02:02:20;;;;;;;0.50;0.50;;;;;;;12.12;64.43;95886.56;29394;236;64008;-58
2023/03/24 02:02:57;;;;;;;0.50;0.50;;;;;;;12.10;64.94;95883.34;29395;209;63020;-58
2023/03/24 02:03:33;;;;;;;0.50;0.50;;;;;;;12.06;64.60;95883.22;29395;203;63005;-58
2023/03/24 02:04:06;;;;;;;0.50;0.50;;;;;;;12.05;64.46;95882.41;29395;219;63009;-66
2023/03/24 02:04:41;;;;;;;0.43;0.43;;;;;;;12.05;64.43;95878.91;29395;238;63005;-59
2023/03/24 02:05:14;;;;;;;0.40;0.40;;;;;;;12.13;64.16;95866.41;29394;330;64013;-58
2023/03/24 02:05:49;;;;;;;0.40;0.40;;;;;;;12.20;63.63;95866.66;29395;231;63015;-59
2023/03/24 02:06:24;;;;;;;0.52;0.52;;;;;;;12.23;64.02;95866.00;29395;260;63009;-58
2023/03/24 02:07:00;;;;;;;0.40;0.40;;;;;;;12.24;63.70;95879.28;29395;248;63004;-59
2023/03/24 02:08:03;;;;;;;0.50;0.50;;;;;;;12.27;63.42;95872.38;29395;231;63009;-59
2023/03/24 02:08:57;;;;;;;0.47;0.47;;;;;;;12.36;62.92;95886.75;29395;205;63004;-59
2023/03/24 02:09:28;;;;;;;0.50;0.50;;;;;;;12.34;63.05;95878.09;29395;220;63008;-58
2023/03/24 02:10:04;;;;;;;0.50;0.50;;;;;;;12.31;63.19;95868.69;29394;349;64008;-59
2023/03/24 02:10:37;;;;;;;0.50;0.50;;;;;;;12.34;63.10;95867.22;29395;260;63009;-58
2023/03/24 02:11:09;;;;;;;0.50;0.50;;;;;;;12.33;63.16;95865.62;29395;197;63005;-59
2023/03/24 02:11:42;;;;;;;0.50;0.50;;;;;;;12.33;63.03;95871.06;29395;547;63009;-58
2023/03/24 02:12:15;;;;;;;0.50;0.50;;;;;;;12.35;63.20;95879.72;29395;266;63005;-58
2023/03/24 02:12:47;;;;;;;0.50;0.50;;;;;;;12.36;63.06;95882.09;29394;469;64013;-58
2023/03/24 02:13:18;;;;;;;0.50;0.50;;;;;;;12.38;63.12;95874.41;29395;367;63005;-58
2023/03/24 02:13:50;;;;;;;0.47;0.47;;;;;;;12.40;63.21;95876.81;29395;214;63009;-58
2023/03/24 02:14:22;;;;;;;0.50;0.50;;;;;;;12.41;63.14;95878.41;29395;206;63004;-57
2023/03/24 02:14:53;;;;;;;0.40;0.40;;;;;;;12.44;62.80;95877.75;29395;213;63004;-59
2023/03/24 02:15:30;;;;;;;0.50;0.50;;;;;;;12.48;62.85;95870.50;29395;296;63004;-58
2023/03/24 02:16:36;;;;;;;0.40;0.40;;;;;;;12.47;62.71;95865.41;29394;197;64013;-59
2023/03/24 02:17:34;;;;;;;0.40;0.40;;;;;;;12.47;62.59;95874.38;29395;235;63004;-58
2023/03/24 02:18:32;;;;;;;0.40;0.40;;;;;;;12.53;62.15;95873.03;29395;285;63009;-58
2023/03/24 02:20:00;;;;;;;0.40;0.40;;;;;;;12.54;62.19;95871.09;29394;199;64009;-59
2023/03/24 02:21:20;;;;;;;0.50;0.50;;;;;;;12.48;62.39;95862.31;29395;216;63005;-58
2023/03/24 02:22:45;;;;;;;0.50;0.50;;;;;;;12.49;62.63;95874.00;29395;247;63009;-57
2023/03/24 02:23:50;;;;;;;0.50;0.50;;;;;;;12.47;62.53;95866.19;29394;202;64009;-61
2023/03/24 02:25:01;;;;;;;0.47;0.47;;;;;;;12.49;62.80;95866.62;29395;243;63004;-58
2023/03/24 02:26:09;;;;;;;0.40;0.40;;;;;;;12.49;62.89;95868.56;29395;368;63009;-60
2023/03/24 02:27:20;;;;;;;0.50;0.50;;;;;;;12.49;62.87;95866.62;29395;268;63005;-58
2023/03/24 02:28:35;;;;;;;0.50;0.50;;;;;;;12.51;62.58;95861.66;29416;237;64013;-58
2023/03/24 02:29:45;;;;;;;0.50;0.50;;;;;;;12.50;62.71;95865.50;29395;234;63004;-59
2023/03/24 02:30:44;;;;;;;0.40;0.40;;;;;;;12.55;62.49;95876.22;29395;231;63004;-58
2023/03/24 02:31:50;;;;;;;0.50;0.50;;;;;;;12.59;62.22;95871.72;29395;203;63008;-58
2023/03/24 02:33:12;;;;;;;0.40;0.40;;;;;;;12.62;61.72;95868.31;29395;247;63004;-59
2023/03/24 02:34:26;;;;;;;0.50;0.50;;;;;;;12.66;61.97;95866.53;29394;241;64013;-58
2023/03/24 02:35:46;;;;;;;0.50;0.50;;;;;;;12.65;61.65;95862.22;29417;537;63005;-60
2023/03/24 02:36:58;;;;;;;0.40;0.40;;;;;;;12.64;61.77;95863.34;29395;278;63009;-58
2023/03/24 02:38:18;;;;;;;0.50;0.50;;;;;;;12.60;62.24;95859.69;29394;249;64009;-58
2023/03/24 02:39:21;;;;;;;0.50;0.50;;;;;;;12.60;61.99;95859.69;29395;225;63008;-58
2023/03/24 02:40:35;;;;;;;0.40;0.40;;;;;;;12.64;61.83;95868.78;29394;262;64009;-60
2023/03/24 02:41:33;;;;;;;0.50;0.50;;;;;;;12.63;61.58;95869.94;29394;225;64013;-58
2023/03/24 02:42:42;;;;;;;0.50;0.50;;;;;;;12.59;61.71;95868.19;29395;375;63010;-57
2023/03/24 02:43:51;;;;;;;0.50;0.50;;;;;;;12.59;62.19;95870.91;29395;312;63009;-57
2023/03/24 02:44:58;;;;;;;0.50;0.50;;;;;;;12.67;61.57;95870.84;29395;235;63004;-59
2023/03/24 02:45:38;;;;;;;0.40;0.40;;;;;;;12.66;61.65;95868.47;29394;243;64009;-59
2023/03/24 02:46:40;;;;;;;0.40;0.40;;;;;;;12.63;62.08;95872.66;29395;206;63008;-59
2023/03/24 02:47:19;;;;;;;0.40;0.40;;;;;;;12.65;61.36;95866.88;29395;284;63005;-58
2023/03/24 02:48:57;;;;;;;0.50;0.50;;;;;;;12.59;61.87;95868.97;29395;237;63009;-59
2023/03/24 02:50:19;;;;;;;0.47;0.47;;;;;;;12.65;61.69;95872.31;29395;267;63005;-57
2023/03/24 02:51:03;;;;;;;0.50;0.50;;;;;;;12.69;61.64;95865.09;29416;256;64013;-57
2023/03/24 02:52:16;;;;;;;0.50;0.50;;;;;;;12.70;61.10;95863.97;29395;240;63004;-59
2023/03/24 02:53:05;;;;;;;0.50;0.50;;;;;;;12.68;61.54;95860.78;29416;198;64013;-58
2023/03/24 02:54:10;;;;;;;0.40;0.40;;;;;;;12.67;61.46;95865.41;29395;339;63004;-58
2023/03/24 02:55:04;;;;;;;0.40;0.40;;;;;;;12.72;61.03;95857.06;29395;293;63009;-59
2023/03/24 02:55:59;;;;;;;0.40;0.40;;;;;;;12.71;61.58;95850.03;29395;435;63015;-58
2023/03/24 02:57:14;;;;;;;0.40;0.40;;;;;;;12.68;61.50;95855.31;29394;404;64013;-58
2023/03/24 02:58:01;;;;;;;0.50;0.50;;;;;;;12.63;61.66;95848.16;29395;382;63009;-58
2023/03/24 02:58:46;;;;;;;0.50;0.50;;;;;;;12.67;61.52;95854.53;29395;356;63005;-57
2023/03/24 02:59:30;;;;;;;0.50;0.50;;;;;;;12.71;61.54;95844.56;29395;325;63009;-59
2023/03/24 03:00:09;;;;;;;0.50;0.50;;;;;;;12.71;61.26;95850.03;29395;299;63004;-59
2023/03/24 03:00:51;;;;;;;0.50;0.50;;;;;;;12.73;61.41;95853.22;29394;351;64013;-59
2023/03/24 03:01:34;;;;;;;0.50;0.50;;;;;;;12.81;60.62;95840.66;29395;207;63004;-59
2023/03/24 03:02:38;;;;;;;0.40;0.40;;;;;;;12.79;60.93;95839.41;29395;278;63018;-58
2023/03/24 03:03:18;;;;;;;0.45;0.45;;;;;;;12.75;61.16;95834.63;29394;308;64009;-58
2023/03/24 03:03:56;;;;;;;0.40;0.40;;;;;;;12.74;61.33;95838.47;29395;379;63009;-58
2023/03/24 03:04:33;;;;;;;0.40;0.40;;;;;;;12.73;61.29;95839.59;29395;254;63005;-57
2023/03/24 03:05:12;;;;;;;0.40;0.40;;;;;;;12.72;61.17;95832.56;29395;295;63015;-58
2023/03/24 03:05:51;;;;;;;0.50;0.50;;;;;;;12.72;61.55;95835.28;29394;412;64009;-58
2023/03/24 03:06:33;;;;;;;0.45;0.45;;;;;;;12.70;61.70;95842.97;29395;206;63009;-57